Time;durP1;ratioP1;P1;durP2;ratioP2;P2;SDS_P1;SDS_P2;PMS_P1;PMS_P2;Temp;Humidity;BMP_temperature;BMP_pressure;BME280_temperature;BME280_humidity;BME280_pressure;Samples;Min_cycle;Max_cycle;Signal;HPM_P1;HPM_P2
2023/09/01 00:01:15;;;;;;;6.10;3.90;;;17.20;24.20;;;;;;4987768;28;20473;-66
2023/09/01 00:03:42;;;;;;;7.30;3.67;;;17.20;24.00;;;;;;4988238;28;20566;-66
2023/09/01 00:06:12;;;;;;;6.57;3.73;;;17.10;23.90;;;;;;4988220;28;20459;-66
2023/09/01 00:08:39;;;;;;;6.03;3.70;;;17.20;24.00;;;;;;4988423;28;20797;-66
2023/09/01 00:11:07;;;;;;;10.50;4.37;;;17.20;24.00;;;;;;4986657;28;20456;-66
2023/09/01 00:13:34;;;;;;;7.53;3.40;;;17.20;24.20;;;;;;4987648;28;20490;-65
2023/09/01 00:16:01;;;;;;;6.30;3.93;;;17.20;24.00;;;;;;4988669;28;20473;-65
2023/09/01 00:18:27;;;;;;;10.30;4.33;;;17.20;24.20;;;;;;4987971;28;20483;-66
2023/09/01 00:20:58;;;;;;;11.40;3.90;;;17.20;24.40;;;;;;4987680;28;20461;-66
2023/09/01 00:23:25;;;;;;;7.60;4.60;;;17.10;24.60;;;;;;4989808;28;21002;-66
2023/09/01 00:25:53;;;;;;;8.20;4.10;;;17.10;24.60;;;;;;4988299;28;20518;-66
2023/09/01 00:28:21;;;;;;;7.30;4.40;;;17.10;24.80;;;;;;4986999;28;20479;-66
2023/09/01 00:30:52;;;;;;;8.43;4.53;;;17.10;24.80;;;;;;4987744;28;20487;-66
2023/09/01 00:33:19;;;;;;;8.03;4.50;;;17.10;25.10;;;;;;4987459;28;20476;-65
2023/09/01 00:35:45;;;;;;;6.47;4.50;;;17.10;24.90;;;;;;4988285;28;20460;-66
2023/09/01 00:38:12;;;;;;;8.27;4.10;;;17.10;24.90;;;;;;4988186;28;20481;-66
2023/09/01 00:40:39;;;;;;;7.17;4.13;;;17.00;24.90;;;;;;4987639;28;20452;-66
2023/09/01 00:43:05;;;;;;;8.37;3.90;;;17.10;24.90;;;;;;4987965;28;20492;-66
2023/09/01 00:45:34;;;;;;;9.50;5.13;;;17.10;25.00;;;;;;4986094;28;20461;-66
2023/09/01 00:48:01;;;;;;;7.53;4.30;;;17.10;25.10;;;;;;4986906;28;20464;-65
2023/09/01 00:50:28;;;;;;;6.57;3.67;;;17.10;25.20;;;;;;4985892;28;20511;-66
2023/09/01 00:52:55;;;;;;;8.43;3.90;;;17.00;25.10;;;;;;4987794;28;20460;-66
2023/09/01 00:55:22;;;;;;;10.50;4.40;;;17.10;25.40;;;;;;4988298;28;20945;-66
2023/09/01 00:57:49;;;;;;;8.70;4.47;;;17.10;25.30;;;;;;4989581;28;20484;-66
2023/09/01 01:00:18;;;;;;;7.87;4.20;;;17.10;25.40;;;;;;4990630;28;20467;-66
2023/09/01 01:02:46;;;;;;;7.83;4.40;;;17.10;25.50;;;;;;4991424;28;21149;-66
2023/09/01 01:05:15;;;;;;;10.60;3.97;;;17.10;25.30;;;;;;4997991;28;20478;-66
2023/09/01 01:07:51;;;;;;;9.07;3.90;;;17.10;25.60;;;;;;4992092;28;20478;-66
2023/09/01 01:10:20;;;;;;;6.70;4.27;;;17.10;25.50;;;;;;4999292;28;20462;-66
2023/09/01 01:12:53;;;;;;;7.80;3.97;;;17.00;25.60;;;;;;4994112;28;20953;-66
2023/09/01 01:15:22;;;;;;;6.13;4.17;;;17.00;25.60;;;;;;4997051;28;20464;-66
2023/09/01 01:17:52;;;;;;;6.80;4.00;;;17.00;25.50;;;;;;4991498;28;21055;-67
2023/09/01 01:20:29;;;;;;;6.93;4.07;;;17.00;25.30;;;;;;4993145;28;20957;-66
2023/09/01 01:23:11;;;;;;;8.67;4.73;;;17.00;25.50;;;;;;4993303;28;20464;-67
2023/09/01 01:25:45;;;;;;;8.80;3.83;;;17.00;25.60;;;;;;4993966;28;20483;-66
2023/09/01 01:28:11;;;;;;;6.87;4.13;;;17.00;25.40;;;;;;4999070;28;20456;-66
2023/09/01 01:30:39;;;;;;;6.63;4.10;;;17.00;25.40;;;;;;4990397;28;20996;-66
2023/09/01 01:33:12;;;;;;;7.90;4.20;;;17.00;25.30;;;;;;4994745;28;20831;-66
2023/09/01 01:35:46;;;;;;;7.33;3.83;;;17.00;25.40;;;;;;4995037;28;20976;-66
2023/09/01 01:38:19;;;;;;;8.10;3.80;;;16.90;25.40;;;;;;4997182;28;20484;-66
2023/09/01 01:40:50;;;;;;;7.43;4.60;;;16.90;25.50;;;;;;4993301;28;20463;-66
2023/09/01 01:43:22;;;;;;;8.10;4.40;;;16.90;25.50;;;;;;4990311;28;20976;-66
2023/09/01 01:45:49;;;;;;;6.23;4.00;;;16.90;25.60;;;;;;4994650;28;20490;-66
2023/09/01 01:48:16;;;;;;;9.27;4.00;;;16.90;25.60;;;;;;4991366;28;20461;-66
2023/09/01 01:50:43;;;;;;;8.87;4.20;;;17.00;25.60;;;;;;4993267;28;20988;-66
2023/09/01 01:53:10;;;;;;;7.30;3.90;;;17.00;25.60;;;;;;4994452;28;20635;-66
2023/09/01 01:55:38;;;;;;;10.13;4.80;;;17.00;25.50;;;;;;4996374;28;20464;-66
2023/09/01 01:58:05;;;;;;;7.40;4.73;;;17.00;25.50;;;;;;4988428;28;20484;-66
2023/09/01 02:00:32;;;;;;;6.90;4.10;;;17.10;25.70;;;;;;4994823;28;20488;-65
2023/09/01 02:03:00;;;;;;;7.40;4.60;;;17.10;25.90;;;;;;4993832;28;20473;-66
2023/09/01 02:05:26;;;;;;;11.07;4.80;;;17.10;26.00;;;;;;4991838;28;20973;-66
2023/09/01 02:07:53;;;;;;;9.50;3.80;;;17.10;26.30;;;;;;4986965;28;21050;-66
2023/09/01 02:10:20;;;;;;;10.67;4.57;;;17.20;26.30;;;;;;4994784;28;20515;-66
2023/09/01 02:12:48;;;;;;;8.63;4.00;;;17.20;26.40;;;;;;4992442;28;20474;-66
2023/09/01 02:15:15;;;;;;;7.40;4.00;;;17.20;26.30;;;;;;4988881;28;20543;-66
2023/09/01 02:17:43;;;;;;;9.27;4.87;;;17.20;26.10;;;;;;4992814;28;20467;-65
2023/09/01 02:20:16;;;;;;;8.77;3.90;;;17.20;26.10;;;;;;4993780;28;21014;-65
2023/09/01 02:22:44;;;;;;;10.77;5.10;;;17.30;26.10;;;;;;4996985;28;20808;-66
2023/09/01 02:25:12;;;;;;;5.60;3.50;;;17.30;25.90;;;;;;4995011;28;20901;-66
2023/09/01 02:27:40;;;;;;;7.87;4.00;;;17.30;26.00;;;;;;4997540;28;20464;-66
2023/09/01 02:30:09;;;;;;;5.70;3.80;;;17.30;25.80;;;;;;4991693;28;20489;-66
2023/09/01 02:32:37;;;;;;;8.73;4.40;;;17.30;25.70;;;;;;4997976;28;20472;-66
2023/09/01 02:35:06;;;;;;;6.60;3.50;;;17.30;25.50;;;;;;4993307;28;20473;-66
2023/09/01 02:37:33;;;;;;;6.97;4.10;;;17.40;25.40;;;;;;4996862;28;20479;-66
2023/09/01 02:39:59;;;;;;;6.20;3.63;;;17.40;25.40;;;;;;4991800;28;20469;-66
2023/09/01 02:42:26;;;;;;;7.63;5.00;;;17.40;25.30;;;;;;4995898;28;20463;-66
2023/09/01 02:44:53;;;;;;;5.70;3.57;;;17.40;25.30;;;;;;4992241;28;20483;-66
2023/09/01 02:47:21;;;;;;;8.20;3.77;;;17.40;25.20;;;;;;4995844;28;20461;-66
2023/09/01 02:49:48;;;;;;;5.77;3.20;;;17.40;25.20;;;;;;4993234;28;20460;-66
2023/09/01 02:52:14;;;;;;;6.80;3.00;;;17.40;25.10;;;;;;4992373;28;21184;-66
2023/09/01 02:54:41;;;;;;;6.27;3.43;;;17.40;25.00;;;;;;4991682;28;21027;-65
2023/09/01 02:57:08;;;;;;;5.00;3.00;;;17.50;25.10;;;;;;4990113;28;20484;-66
2023/09/01 02:59:34;;;;;;;5.60;3.30;;;17.50;25.00;;;;;;4997634;28;20949;-66
2023/09/01 03:02:01;;;;;;;6.17;3.33;;;17.50;24.90;;;;;;4988125;28;20472;-66
2023/09/01 03:04:30;;;;;;;9.13;3.17;;;17.50;24.90;;;;;;4987577;28;20484;-67
2023/09/01 03:06:57;;;;;;;7.77;3.90;;;17.50;24.90;;;;;;4991858;28;20464;-66
2023/09/01 03:09:24;;;;;;;5.27;2.80;;;17.50;24.50;;;;;;4991821;28;20625;-66
2023/09/01 03:11:51;;;;;;;6.73;3.40;;;17.50;24.70;;;;;;4989467;28;20473;-67
2023/09/01 03:14:17;;;;;;;5.73;3.10;;;17.50;24.70;;;;;;4987395;28;20480;-66
2023/09/01 03:16:44;;;;;;;8.33;3.57;;;17.50;24.70;;;;;;4989062;28;20457;-66
2023/09/01 03:19:11;;;;;;;5.13;2.60;;;17.50;24.70;;;;;;4992845;28;20851;-66
2023/09/01 03:21:40;;;;;;;5.93;3.07;;;17.50;24.90;;;;;;4992063;28;20453;-66
2023/09/01 03:24:07;;;;;;;5.80;2.90;;;17.50;24.90;;;;;;4989350;28;21009;-66
2023/09/01 03:26:34;;;;;;;6.87;4.30;;;17.50;24.80;;;;;;4990095;28;20463;-66
2023/09/01 03:29:01;;;;;;;5.60;3.10;;;17.60;24.70;;;;;;4991009;28;20853;-66
2023/09/01 03:31:28;;;;;;;7.10;3.27;;;17.50;24.60;;;;;;4988526;28;20468;-66
2023/09/01 03:33:55;;;;;;;5.77;2.80;;;17.60;24.40;;;;;;4979725;28;20518;-66
2023/09/01 03:36:22;;;;;;;5.53;2.97;;;17.60;24.10;;;;;;4989058;28;20469;-66
2023/09/01 03:38:50;;;;;;;4.90;2.80;;;17.60;24.10;;;;;;4988604;28;20579;-66
2023/09/01 03:41:17;;;;;;;7.00;2.80;;;17.60;23.90;;;;;;4988181;28;20464;-66
2023/09/01 03:43:43;;;;;;;6.23;3.50;;;17.60;23.80;;;;;;4985634;28;20836;-66
2023/09/01 03:46:10;;;;;;;4.97;2.20;;;17.60;23.70;;;;;;4989171;28;20461;-66
2023/09/01 03:48:37;;;;;;;9.03;2.70;;;17.60;23.40;;;;;;4987876;28;20463;-66
2023/09/01 03:51:07;;;;;;;4.10;2.20;;;17.60;23.40;;;;;;4988017;28;20453;-66
2023/09/01 03:53:34;;;;;;;4.67;2.53;;;17.60;23.00;;;;;;4987422;28;20487;-66
2023/09/01 03:56:07;;;;;;;6.47;2.43;;;17.60;22.50;;;;;;4988560;28;20456;-66
2023/09/01 03:58:34;;;;;;;9.47;2.40;;;17.60;22.60;;;;;;4986077;28;20488;-66
2023/09/01 04:01:01;;;;;;;5.63;2.43;;;17.60;22.60;;;;;;4989450;28;20480;-66
2023/09/01 04:03:27;;;;;;;4.80;2.07;;;17.60;22.60;;;;;;4988416;28;20483;-66
2023/09/01 04:05:57;;;;;;;6.80;2.60;;;17.60;22.40;;;;;;4992440;28;20531;-66
2023/09/01 04:08:25;;;;;;;6.53;2.80;;;17.60;22.40;;;;;;4995600;28;20967;-66
2023/09/01 04:10:52;;;;;;;5.77;2.33;;;17.60;22.20;;;;;;4997038;28;20820;-66
2023/09/01 04:13:20;;;;;;;6.80;2.77;;;17.60;22.40;;;;;;4993274;28;21138;-66
2023/09/01 04:15:46;;;;;;;7.10;2.67;;;17.60;22.50;;;;;;4989801;28;20460;-66
2023/09/01 04:18:13;;;;;;;5.70;2.20;;;17.60;22.50;;;;;;4991977;28;20493;-66
2023/09/01 04:20:40;;;;;;;6.83;2.37;;;17.60;22.50;;;;;;4996142;28;21142;-66
2023/09/01 04:23:06;;;;;;;5.17;2.20;;;17.60;22.50;;;;;;4992127;28;20521;-66
2023/09/01 04:25:34;;;;;;;7.50;2.57;;;17.60;22.60;;;;;;4996082;28;20462;-66
2023/09/01 04:28:00;;;;;;;5.80;2.60;;;17.50;22.80;;;;;;4994108;28;21110;-66
2023/09/01 04:30:30;;;;;;;6.23;2.47;;;17.50;22.70;;;;;;4998554;28;20463;-66
2023/09/01 04:32:57;;;;;;;8.43;2.60;;;17.50;22.70;;;;;;4994600;28;20594;-66
2023/09/01 04:35:23;;;;;;;5.97;2.70;;;17.50;22.70;;;;;;4993335;28;20551;-66
2023/09/01 04:37:50;;;;;;;8.00;2.53;;;17.50;22.80;;;;;;4991953;28;20480;-66
2023/09/01 04:40:17;;;;;;;4.93;2.57;;;17.50;22.70;;;;;;4991877;28;20955;-66
2023/09/01 04:42:43;;;;;;;4.80;2.10;;;17.50;22.80;;;;;;4994230;28;20488;-66
2023/09/01 04:45:10;;;;;;;5.33;2.37;;;17.50;22.70;;;;;;4994013;28;20452;-66
2023/09/01 04:47:38;;;;;;;7.00;2.50;;;17.50;22.90;;;;;;4992938;28;20449;-66
2023/09/01 04:50:06;;;;;;;9.20;3.03;;;17.50;22.80;;;;;;4994115;28;20958;-66
2023/09/01 04:52:33;;;;;;;5.30;2.80;;;17.50;23.00;;;;;;4991611;28;20452;-66
2023/09/01 04:54:59;;;;;;;4.73;2.17;;;17.50;22.90;;;;;;4992196;28;20856;-66
2023/09/01 04:57:28;;;;;;;5.50;2.30;;;17.50;22.90;;;;;;4992959;28;20468;-66
2023/09/01 04:59:54;;;;;;;6.70;2.67;;;17.50;23.00;;;;;;4989603;28;20460;-66
2023/09/01 05:02:21;;;;;;;6.60;2.60;;;17.50;23.00;;;;;;4993691;28;20479;-66
2023/09/01 05:04:49;;;;;;;5.23;2.30;;;17.50;23.10;;;;;;4991788;28;20519;-66
2023/09/01 05:07:16;;;;;;;6.00;2.20;;;17.50;23.10;;;;;;4986069;28;20462;-66
2023/09/01 05:09:43;;;;;;;9.07;2.70;;;17.50;23.10;;;;;;4991524;28;20455;-66
2023/09/01 05:12:09;;;;;;;7.83;3.60;;;17.50;23.10;;;;;;4995103;28;20837;-66
2023/09/01 05:14:36;;;;;;;5.00;2.10;;;17.50;23.10;;;;;;4994857;28;20481;-66
2023/09/01 05:17:03;;;;;;;8.60;2.80;;;17.50;23.10;;;;;;4988976;28;20472;-66
2023/09/01 05:19:30;;;;;;;5.90;2.50;;;17.60;23.10;;;;;;4992830;28;20484;-66
2023/09/01 05:21:58;;;;;;;5.57;2.20;;;17.60;23.20;;;;;;4994836;28;20460;-66
2023/09/01 05:24:25;;;;;;;4.97;2.50;;;17.60;23.20;;;;;;4997744;28;21004;-66
2023/09/01 05:26:51;;;;;;;12.00;2.70;;;17.70;23.20;;;;;;4990901;28;20461;-67
2023/09/01 05:29:18;;;;;;;6.03;2.50;;;17.70;23.10;;;;;;4993488;28;20463;-67
2023/09/01 05:31:45;;;;;;;7.63;3.00;;;17.80;23.10;;;;;;4995042;28;20476;-67
2023/09/01 05:34:11;;;;;;;6.47;2.80;;;17.80;22.60;;;;;;4987577;28;20993;-68
2023/09/01 05:36:38;;;;;;;7.23;2.63;;;17.90;22.70;;;;;;4997404;28;20461;-68
2023/09/01 05:39:06;;;;;;;6.13;2.27;;;18.00;22.30;;;;;;4996251;28;20491;-68
2023/09/01 05:41:33;;;;;;;5.93;2.30;;;18.00;22.30;;;;;;4997582;28;20461;-68
2023/09/01 05:44:00;;;;;;;9.13;2.47;;;18.00;22.20;;;;;;4993140;28;20980;-68
2023/09/01 05:46:26;;;;;;;7.40;2.20;;;18.00;22.20;;;;;;4998890;28;20464;-68
2023/09/01 05:48:53;;;;;;;7.60;2.20;;;18.00;22.00;;;;;;4996419;28;20452;-68
2023/09/01 05:51:20;;;;;;;4.53;2.17;;;18.10;21.90;;;;;;4997491;28;20460;-68
2023/09/01 05:53:47;;;;;;;6.33;2.33;;;18.10;21.90;;;;;;4992911;28;20572;-68
2023/09/01 05:56:16;;;;;;;4.83;2.20;;;18.10;21.70;;;;;;4996538;28;21021;-68
2023/09/01 05:58:42;;;;;;;6.43;3.03;;;18.20;21.60;;;;;;4998650;28;20487;-68
2023/09/01 06:01:09;;;;;;;5.93;2.57;;;18.20;21.60;;;;;;4994236;28;20473;-68
2023/09/01 06:03:36;;;;;;;7.00;2.40;;;18.20;21.60;;;;;;4987329;28;20484;-68
2023/09/01 06:06:02;;;;;;;5.10;2.13;;;18.30;21.50;;;;;;4991777;28;20472;-68
2023/09/01 06:08:29;;;;;;;7.93;2.53;;;18.40;21.20;;;;;;4988946;28;20465;-68
2023/09/01 06:11:04;;;;;;;5.40;2.40;;;18.50;21.80;;;;;;4985624;28;20473;-68
2023/09/01 06:13:32;;;;;;;5.80;2.40;;;18.60;20.90;;;;;;4991847;28;20484;-68
2023/09/01 06:15:59;;;;;;;4.23;1.83;;;18.70;20.50;;;;;;4987298;28;20474;-68
2023/09/01 06:18:25;;;;;;;7.23;2.80;;;18.80;20.40;;;;;;4987597;28;20476;-68
2023/09/01 06:20:52;;;;;;;5.60;2.70;;;18.80;20.30;;;;;;4991242;28;20472;-68
2023/09/01 06:23:19;;;;;;;4.90;2.10;;;18.90;20.30;;;;;;4990162;28;20885;-68
2023/09/01 06:25:45;;;;;;;6.13;2.40;;;18.90;20.20;;;;;;4991949;28;20453;-68
2023/09/01 06:28:13;;;;;;;4.67;2.43;;;18.90;20.00;;;;;;4993100;28;20453;-68
2023/09/01 06:30:42;;;;;;;4.70;2.20;;;18.90;20.10;;;;;;4991444;28;20475;-68
2023/09/01 06:33:09;;;;;;;5.90;2.10;;;18.90;20.20;;;;;;4989431;28;20500;-68
2023/09/01 06:35:36;;;;;;;6.00;1.93;;;19.00;20.20;;;;;;4991377;28;20469;-68
2023/09/01 06:38:05;;;;;;;5.20;2.20;;;19.00;20.20;;;;;;4995151;28;20463;-68
2023/09/01 06:40:32;;;;;;;8.13;2.27;;;19.00;19.90;;;;;;4995221;28;20560;-68
2023/09/01 06:42:59;;;;;;;5.43;2.43;;;19.00;19.90;;;;;;4995396;28;20488;-68
2023/09/01 06:45:26;;;;;;;6.33;2.23;;;19.00;19.90;;;;;;4997385;28;20534;-68
2023/09/01 06:47:55;;;;;;;5.43;2.03;;;19.00;19.70;;;;;;4997441;28;20460;-68
2023/09/01 06:50:22;;;;;;;5.80;1.80;;;19.00;19.80;;;;;;4996435;28;20471;-68
2023/09/01 06:52:50;;;;;;;6.50;2.67;;;19.00;19.90;;;;;;4997275;28;20936;-68
2023/09/01 06:55:17;;;;;;;4.87;2.40;;;19.00;20.00;;;;;;4990268;28;20469;-68
2023/09/01 06:57:44;;;;;;;5.20;2.17;;;19.00;20.00;;;;;;4996251;28;20983;-68
2023/09/01 07:00:12;;;;;;;4.83;1.83;;;19.00;20.20;;;;;;4995380;28;20493;-68
2023/09/01 07:02:39;;;;;;;4.70;1.47;;;19.00;20.00;;;;;;4992433;28;20556;-68
2023/09/01 07:05:08;;;;;;;4.07;1.80;;;19.00;20.10;;;;;;4991459;28;20468;-68
2023/09/01 07:07:34;;;;;;;8.90;2.57;;;19.00;19.90;;;;;;4997157;28;20961;-68
2023/09/01 07:10:01;;;;;;;5.87;1.80;;;19.00;20.00;;;;;;4994351;28;20457;-68
2023/09/01 07:12:28;;;;;;;6.20;1.73;;;19.00;20.00;;;;;;4998131;28;20457;-68
2023/09/01 07:14:54;;;;;;;4.90;1.80;;;19.00;20.30;;;;;;4997240;28;20487;-68
2023/09/01 07:17:22;;;;;;;4.20;1.90;;;19.00;20.30;;;;;;4996543;28;20461;-68
2023/09/01 07:19:48;;;;;;;4.53;1.93;;;19.10;20.40;;;;;;4995863;28;20569;-68
2023/09/01 07:22:16;;;;;;;6.13;1.73;;;19.30;20.50;;;;;;4996781;28;20460;-68
2023/09/01 07:24:43;;;;;;;4.30;2.00;;;19.60;20.20;;;;;;4996246;28;20482;-68
2023/09/01 07:27:10;;;;;;;5.53;1.70;;;19.80;19.90;;;;;;4991281;28;20968;-68
2023/09/01 07:29:36;;;;;;;4.73;1.80;;;20.10;19.40;;;;;;4995746;28;20468;-68
2023/09/01 07:32:04;;;;;;;5.37;2.13;;;20.40;18.50;;;;;;4994067;28;20476;-68
2023/09/01 07:34:31;;;;;;;5.10;1.83;;;20.60;17.80;;;;;;4993824;28;20476;-68
2023/09/01 07:36:57;;;;;;;4.33;1.70;;;20.70;17.20;;;;;;5008372;23;20471;-66
2023/09/01 07:39:25;;;;;;;8.10;1.90;;;20.70;17.10;;;;;;4966494;28;20998;-66
2023/09/01 07:41:52;;;;;;;4.33;1.90;;;20.70;16.90;;;;;;4969804;28;20462;-67
2023/09/01 07:44:20;;;;;;;6.00;1.80;;;20.70;17.00;;;;;;4968386;28;21018;-67
2023/09/01 07:46:47;;;;;;;9.73;2.00;;;20.70;17.10;;;;;;4962142;28;20966;-66
2023/09/01 07:49:13;;;;;;;4.37;1.70;;;20.80;17.60;;;;;;4967467;28;20465;-66
2023/09/01 07:51:40;;;;;;;6.23;1.70;;;21.00;17.30;;;;;;4970798;28;20965;-67
2023/09/01 07:54:07;;;;;;;7.07;2.30;;;21.10;17.10;;;;;;4969216;28;20909;-67
2023/09/01 07:56:35;;;;;;;5.30;1.83;;;21.30;17.00;;;;;;4968249;28;20466;-67
2023/09/01 07:59:03;;;;;;;8.10;1.90;;;21.50;17.00;;;;;;4966365;28;20500;-67
2023/09/01 08:01:29;;;;;;;7.30;1.80;;;21.90;16.60;;;;;;4967959;28;20494;-67
2023/09/01 08:03:59;;;;;;;5.40;1.70;;;22.90;15.70;;;;;;4964302;28;20489;-66
2023/09/01 08:06:26;;;;;;;8.00;2.30;;;23.90;12.60;;;;;;4967413;28;20871;-67
2023/09/01 08:08:52;;;;;;;5.10;2.07;;;24.50;10.90;;;;;;4973088;28;20453;-68
2023/09/01 08:11:19;;;;;;;6.67;1.80;;;25.10;9.80;;;;;;4971203;28;20482;-67
2023/09/01 08:13:47;;;;;;;5.67;1.53;;;26.10;7.10;;;;;;4971274;28;20837;-67
2023/09/01 08:16:15;;;;;;;5.77;1.67;;;27.40;5.00;;;;;;4972710;28;20461;-67
2023/09/01 08:18:42;;;;;;;4.43;1.50;;;28.30;3.30;;;;;;4970627;28;20564;-67
2023/09/01 08:21:09;;;;;;;3.73;1.20;;;30.10;1.00;;;;;;4971837;28;21165;-67
2023/09/01 08:23:36;;;;;;;4.37;1.63;;;31.60;1.00;;;;;;4971700;28;20860;-67
2023/09/01 08:26:05;;;;;;;4.30;1.40;;;33.20;1.00;;;;;;4968114;28;20469;-68
2023/09/01 08:28:32;;;;;;;3.97;1.23;;;34.00;1.00;;;;;;4972834;28;20481;-67
2023/09/01 08:31:03;;;;;;;5.47;1.63;;;33.20;1.00;;;;;;4970188;28;20494;-67
2023/09/01 08:33:29;;;;;;;3.43;1.23;;;32.30;1.00;;;;;;4967471;28;20512;-67
2023/09/01 08:35:56;;;;;;;5.90;2.17;;;32.00;1.00;;;;;;4969189;28;20462;-68
2023/09/01 08:38:23;;;;;;;4.10;1.70;;;33.00;1.00;;;;;;4968176;28;20836;-67
2023/09/01 08:40:50;;;;;;;7.33;1.53;;;35.00;1.00;;;;;;4971866;28;20484;-68
2023/09/01 08:43:17;;;;;;;5.83;1.70;;;37.10;1.00;;;;;;4969121;28;21049;-68
2023/09/01 08:45:44;;;;;;;4.90;1.53;;;38.20;1.00;;;;;;4970722;28;20453;-68
2023/09/01 08:48:14;;;;;;;4.20;1.47;;;39.30;1.00;;;;;;4967327;28;20839;-68
2023/09/01 08:50:40;;;;;;;5.30;1.93;;;41.20;1.00;;;;;;4971481;28;21050;-68
2023/09/01 08:53:07;;;;;;;5.67;1.43;;;42.90;1.00;;;;;;4968670;28;20499;-68
2023/09/01 08:55:34;;;;;;;6.10;1.77;;;44.40;1.00;;;;;;4969803;28;20466;-67
2023/09/01 08:58:01;;;;;;;4.83;1.50;;;45.20;1.00;;;;;;4970353;28;20484;-68
2023/09/01 09:00:28;;;;;;;6.27;1.20;;;46.10;1.00;;;;;;4967646;28;20482;-68
2023/09/01 09:02:55;;;;;;;4.23;1.53;;;46.60;1.00;;;;;;4967754;28;20469;-69
2023/09/01 09:05:26;;;;;;;4.70;1.50;;;47.50;1.00;;;;;;4969596;28;20466;-68
2023/09/01 09:07:59;;;;;;;4.47;1.40;;;48.40;1.00;;;;;;4971181;28;20473;-69
2023/09/01 09:10:34;;;;;;;3.83;1.43;;;49.10;1.00;;;;;;4967576;28;20466;-69
2023/09/01 09:13:02;;;;;;;4.40;1.27;;;49.20;1.00;;;;;;4971800;28;20539;-68
2023/09/01 09:15:28;;;;;;;3.17;1.27;;;49.50;1.00;;;;;;4968016;28;20476;-68
2023/09/01 09:17:55;;;;;;;3.33;1.27;;;49.00;1.00;;;;;;4970097;28;20466;-68
2023/09/01 09:20:36;;;;;;;3.70;1.40;;;49.00;1.00;;;;;;4971351;28;20497;-68
2023/09/01 09:23:03;;;;;;;3.83;1.20;;;48.20;1.00;;;;;;4960184;28;20566;-68
2023/09/01 09:25:31;;;;;;;3.03;1.20;;;48.90;1.00;;;;;;4969133;28;20470;-69
2023/09/01 09:27:59;;;;;;;5.93;1.37;;;49.30;1.00;;;;;;4970168;28;20461;-68
2023/09/01 09:30:27;;;;;;;3.73;1.00;;;49.50;1.00;;;;;;4968297;28;20479;-68
2023/09/01 09:33:04;;;;;;;3.90;1.17;;;48.80;1.00;;;;;;4968880;28;20461;-68
2023/09/01 09:35:34;;;;;;;3.90;1.43;;;47.20;1.00;;;;;;4968448;28;20467;-69
2023/09/01 09:38:01;;;;;;;4.50;1.20;;;46.40;1.00;;;;;;4965421;28;20978;-68
2023/09/01 09:40:29;;;;;;;3.50;1.33;;;46.00;1.00;;;;;;4968414;28;20553;-68
2023/09/01 09:42:58;;;;;;;4.37;1.50;;;45.40;1.00;;;;;;4970959;28;20470;-68
2023/09/01 09:45:28;;;;;;;4.57;1.47;;;46.00;1.00;;;;;;4969184;28;20505;-68
2023/09/01 09:47:56;;;;;;;3.50;1.30;;;45.60;1.00;;;;;;4972032;28;20468;-68
2023/09/01 09:50:25;;;;;;;4.50;1.33;;;45.60;1.00;;;;;;4969135;28;20966;-68
2023/09/01 09:52:58;;;;;;;3.43;1.10;;;45.00;1.00;;;;;;4967322;28;20473;-68
2023/09/01 09:55:26;;;;;;;5.20;1.40;;;44.00;1.00;;;;;;4970640;28;20517;-68
2023/09/01 09:57:58;;;;;;;4.10;1.00;;;44.30;1.00;;;;;;4967783;28;20553;-68
2023/09/01 10:00:28;;;;;;;3.07;1.10;;;45.70;1.00;;;;;;4964731;28;20481;-69
2023/09/01 10:03:00;;;;;;;3.77;1.40;;;46.80;1.00;;;;;;4970798;28;20485;-67
2023/09/01 10:05:31;;;;;;;4.40;1.10;;;47.50;1.00;;;;;;4966976;28;20488;-68
2023/09/01 10:08:03;;;;;;;3.70;1.33;;;47.70;1.00;;;;;;4969675;28;20568;-67
2023/09/01 10:10:33;;;;;;;3.93;1.60;;;45.20;1.00;;;;;;4971238;28;21010;-67
2023/09/01 10:13:02;;;;;;;3.93;1.37;;;42.70;1.00;;;;;;4968450;28;20536;-67
2023/09/01 10:15:31;;;;;;;5.43;1.67;;;43.40;1.00;;;;;;4971316;28;20473;-68
2023/09/01 10:17:59;;;;;;;4.30;1.43;;;44.80;1.00;;;;;;4970838;28;20488;-68
2023/09/01 10:20:26;;;;;;;3.60;1.60;;;45.60;1.00;;;;;;4964977;28;20486;-68
2023/09/01 10:22:54;;;;;;;3.63;1.27;;;46.30;1.00;;;;;;4966828;28;20472;-68
2023/09/01 10:25:23;;;;;;;5.73;1.30;;;46.40;1.00;;;;;;4966205;28;20874;-68
2023/09/01 10:28:04;;;;;;;3.80;1.23;;;44.70;1.00;;;;;;4968549;28;20480;-67
2023/09/01 10:30:31;;;;;;;3.77;1.40;;;42.60;1.00;;;;;;4966133;28;20458;-68
2023/09/01 10:33:07;;;;;;;3.83;1.73;;;42.60;1.00;;;;;;4969645;28;20477;-67
2023/09/01 10:35:43;;;;;;;2.87;1.17;;;41.00;1.00;;;;;;4970093;28;20468;-68
2023/09/01 10:38:15;;;;;;;9.57;1.73;;;39.40;1.00;;;;;;4969435;28;20465;-67
2023/09/01 10:40:45;;;;;;;4.17;1.40;;;38.70;1.00;;;;;;4969489;28;20553;-68
2023/09/01 10:43:12;;;;;;;5.10;1.37;;;37.80;1.00;;;;;;4964273;28;20486;-67
2023/09/01 10:45:39;;;;;;;4.77;1.67;;;37.70;1.00;;;;;;4967139;28;20556;-67
2023/09/01 10:48:11;;;;;;;4.23;1.57;;;36.90;1.00;;;;;;4967313;28;20696;-68
2023/09/01 10:50:41;;;;;;;3.87;1.53;;;35.60;1.00;;;;;;4964785;28;20490;-68
2023/09/01 10:53:30;;;;;;;4.20;1.47;;;34.60;1.00;;;;;;4966704;28;20506;-67
2023/09/01 10:56:10;;;;;;;3.73;1.33;;;34.70;1.00;;;;;;4965573;28;20476;-68
2023/09/01 10:58:50;;;;;;;4.30;1.20;;;35.00;1.00;;;;;;4968350;28;20469;-67
2023/09/01 11:01:32;;;;;;;4.80;1.50;;;35.30;1.00;;;;;;4966322;28;20485;-67
2023/09/01 11:04:32;;;;;;;4.43;1.40;;;35.70;1.00;;;;;;4969840;28;20488;-67
2023/09/01 11:07:08;;;;;;;5.00;1.53;;;35.90;1.00;;;;;;4966738;28;20469;-67
2023/09/01 11:09:57;;;;;;;3.70;1.23;;;35.10;1.00;;;;;;4965499;28;20462;-68
2023/09/01 11:12:31;;;;;;;3.53;1.53;;;34.50;1.00;;;;;;4967461;28;20458;-67
2023/09/01 11:15:00;;;;;;;4.67;1.83;;;33.70;1.00;;;;;;4965685;28;20485;-67
2023/09/01 11:17:38;;;;;;;5.00;1.43;;;33.00;1.00;;;;;;4966223;28;20957;-67
2023/09/01 11:20:08;;;;;;;4.13;1.40;;;32.30;1.00;;;;;;4966260;28;20481;-68
2023/09/01 11:22:35;;;;;;;4.30;1.30;;;31.80;1.00;;;;;;4965691;28;20604;-68
2023/09/01 11:25:03;;;;;;;4.27;1.40;;;31.20;1.00;;;;;;4966214;28;20470;-68
2023/09/01 11:27:32;;;;;;;4.10;1.53;;;30.70;1.00;;;;;;4971179;28;20462;-68
2023/09/01 11:30:02;;;;;;;4.37;1.50;;;30.20;1.00;;;;;;4969451;28;20922;-68
2023/09/01 11:32:29;;;;;;;3.70;1.50;;;30.00;1.00;;;;;;4969041;28;20474;-68
2023/09/01 11:34:55;;;;;;;4.43;1.40;;;29.80;1.00;;;;;;4968071;28;20492;-68
2023/09/01 11:37:35;;;;;;;3.90;1.47;;;29.80;1.00;;;;;;4969380;28;20466;-68
2023/09/01 11:40:04;;;;;;;4.47;1.47;;;29.90;1.00;;;;;;4968032;28;20567;-68
2023/09/01 11:42:34;;;;;;;4.17;1.20;;;29.80;1.00;;;;;;4968874;28;20493;-68
2023/09/01 11:45:04;;;;;;;4.90;1.53;;;29.70;1.00;;;;;;4969332;28;20482;-68
2023/09/01 11:47:31;;;;;;;4.40;1.40;;;29.70;1.00;;;;;;4968216;28;20469;-68
2023/09/01 11:49:58;;;;;;;4.97;1.37;;;29.70;1.00;;;;;;4970025;28;20461;-67
2023/09/01 11:52:25;;;;;;;3.57;1.40;;;29.60;1.00;;;;;;4970088;28;20475;-68
2023/09/01 11:54:52;;;;;;;4.80;1.33;;;29.70;1.00;;;;;;4968194;28;20485;-68
2023/09/01 11:57:21;;;;;;;5.03;1.77;;;29.60;1.00;;;;;;4964666;28;20539;-68
2023/09/01 11:59:49;;;;;;;5.97;1.40;;;29.50;1.00;;;;;;4967756;28;20466;-68
2023/09/01 12:02:18;;;;;;;5.07;1.57;;;29.20;1.00;;;;;;4967570;28;20480;-68
2023/09/01 12:04:49;;;;;;;5.03;1.10;;;28.90;1.00;;;;;;4967038;28;20481;-68
2023/09/01 12:07:26;;;;;;;4.20;1.20;;;28.70;1.00;;;;;;4963281;28;20465;-67
2023/09/01 12:09:53;;;;;;;4.97;1.90;;;28.50;1.00;;;;;;4964164;28;20453;-67
2023/09/01 12:12:20;;;;;;;4.00;1.60;;;28.40;1.00;;;;;;4965948;28;20465;-68
2023/09/01 12:14:49;;;;;;;4.03;1.50;;;28.40;1.00;;;;;;4969424;28;20477;-68
2023/09/01 12:17:18;;;;;;;3.77;1.33;;;28.30;1.00;;;;;;4969073;28;20458;-68
2023/09/01 12:19:50;;;;;;;3.80;1.57;;;28.20;1.00;;;;;;4969031;28;20460;-68
2023/09/01 12:22:17;;;;;;;4.10;1.90;;;27.90;1.00;;;;;;4970013;28;20472;-68
2023/09/01 12:24:51;;;;;;;4.77;1.20;;;27.70;1.00;;;;;;4969572;28;20516;-68
2023/09/01 12:27:18;;;;;;;4.60;1.20;;;27.50;1.00;;;;;;4968600;28;20457;-68
2023/09/01 12:29:45;;;;;;;4.07;1.47;;;27.40;1.00;;;;;;4969205;28;20462;-68
2023/09/01 12:32:13;;;;;;;4.00;1.50;;;27.10;1.00;;;;;;4968864;28;20466;-68
2023/09/01 12:34:40;;;;;;;9.30;2.03;;;26.90;1.00;;;;;;4969071;28;20492;-68
2023/09/01 12:37:07;;;;;;;7.10;1.63;;;26.80;1.00;;;;;;4968600;28;20462;-68
2023/09/01 12:39:34;;;;;;;3.80;1.17;;;26.70;1.00;;;;;;4967690;28;20463;-68
2023/09/01 12:42:01;;;;;;;3.90;1.50;;;26.60;1.00;;;;;;4972214;28;20478;-68
2023/09/01 12:44:28;;;;;;;4.87;1.57;;;26.60;1.00;;;;;;4964877;28;20493;-68
2023/09/01 12:46:55;;;;;;;4.33;1.40;;;26.40;1.00;;;;;;4967449;28;20462;-66
2023/09/01 12:49:23;;;;;;;3.40;1.10;;;26.20;1.00;;;;;;4968585;28;20493;-67
2023/09/01 12:51:50;;;;;;;3.83;1.33;;;26.10;1.00;;;;;;4971989;28;20457;-67
2023/09/01 12:54:17;;;;;;;4.57;1.53;;;25.90;1.50;;;;;;4972102;28;20477;-67
2023/09/01 12:56:44;;;;;;;5.40;1.50;;;25.80;1.70;;;;;;4971993;28;20453;-67